createdAt,value
2019-05-30T00:00:17.894Z,102072.59
2019-05-30T00:02:47.998Z,102080.42
2019-05-30T00:05:21.888Z,102079.08
2019-05-30T00:07:52.244Z,102074.66
2019-05-30T00:10:22.603Z,102070.27
2019-05-30T00:12:54.571Z,102072.16
2019-05-30T00:15:27.109Z,102067.68
2019-05-30T00:17:59.002Z,102066.44
2019-05-30T00:20:29.800Z,102061.55
2019-05-30T00:23:02.832Z,102067.64
2019-05-30T00:25:34.966Z,102064.14
2019-05-30T00:28:06.047Z,102058.00
2019-05-30T00:30:36.786Z,102063.19
2019-05-30T00:33:07.180Z,102064.53
2019-05-30T00:35:40.076Z,102062.97
2019-05-30T00:38:10.377Z,102058.86
2019-05-30T00:40:40.746Z,102058.00
2019-05-30T00:43:11.122Z,102059.34
2019-05-30T00:45:41.457Z,102057.67
2019-05-30T00:48:11.802Z,102060.61
2019-05-30T00:50:42.078Z,102056.19
2019-05-30T00:53:12.508Z,102058.01
2019-05-30T00:55:42.913Z,102053.63
2019-05-30T00:58:14.508Z,102048.92
2019-05-30T01:00:46.023Z,102039.77
2019-05-30T01:03:16.331Z,102044.08
2019-05-30T01:05:46.605Z,102044.41
2019-05-30T01:08:20.061Z,102047.02
2019-05-30T01:10:50.373Z,102048.75
2019-05-30T01:13:20.619Z,102055.74
2019-05-30T01:15:51.309Z,102051.73
2019-05-30T01:18:21.860Z,102053.34
2019-05-30T01:20:52.394Z,102058.84
2019-05-30T01:23:23.948Z,102053.02
2019-05-30T01:25:55.358Z,102053.09
2019-05-30T01:28:25.786Z,102048.16
2019-05-30T01:31:03.070Z,102048.59
2019-05-30T01:33:28.924Z,102056.47
2019-05-30T01:35:59.779Z,102056.91
2019-05-30T01:38:30.002Z,102062.12
2019-05-30T01:41:02.422Z,102057.78
2019-05-30T01:43:32.865Z,102056.48
2019-05-30T01:46:04.275Z,102049.46
2019-05-30T01:48:34.775Z,102049.15
2019-05-30T01:51:06.619Z,102043.93
2019-05-30T01:53:36.892Z,102045.33
2019-05-30T01:56:08.852Z,102051.02
2019-05-30T01:58:40.648Z,102052.20
2019-05-30T02:01:24.324Z,102054.67
2019-05-30T02:03:46.008Z,102054.83
2019-05-30T02:06:16.637Z,102049.00
2019-05-30T02:08:47.124Z,102043.69
2019-05-30T02:11:17.695Z,102046.08
2019-05-30T02:13:47.921Z,102045.47
2019-05-30T02:16:18.559Z,102047.22
2019-05-30T02:18:49.953Z,102051.94
2019-05-30T02:21:21.895Z,102061.09
2019-05-30T02:23:52.137Z,102058.92
2019-05-30T02:26:22.793Z,102055.08
2019-05-30T02:28:53.107Z,102053.33
2019-05-30T02:31:38.327Z,102055.00
2019-05-30T02:33:56.608Z,102058.11
2019-05-30T02:36:28.179Z,102059.36
2019-05-30T02:38:58.766Z,102051.09
2019-05-30T02:41:30.188Z,102046.09
2019-05-30T02:44:01.204Z,102049.78
2019-05-30T02:46:32.136Z,102044.03
2019-05-30T02:49:04.912Z,102052.80
2019-05-30T02:51:37.516Z,102044.30
2019-05-30T02:54:09.306Z,102055.16
2019-05-30T02:56:39.877Z,102057.37
2019-05-30T02:59:11.556Z,102071.81
2019-05-30T03:01:59.846Z,102068.32
2019-05-30T03:04:14.987Z,102070.57
2019-05-30T03:06:46.039Z,102072.39
2019-05-30T03:09:16.869Z,102077.22
2019-05-30T03:11:48.085Z,102083.88
2019-05-30T03:14:19.989Z,102071.04
2019-05-30T03:16:52.052Z,102077.75
2019-05-30T03:19:22.309Z,102069.30
2019-05-30T03:21:52.675Z,102073.66
2019-05-30T03:24:23.104Z,102069.26
2019-05-30T03:26:53.785Z,102070.97
2019-05-30T03:29:24.034Z,102065.73
2019-05-30T03:31:56.438Z,102072.82
2019-05-30T03:34:29.139Z,102073.22
2019-05-30T03:36:59.243Z,102077.95
2019-05-30T03:39:31.440Z,102080.16
2019-05-30T03:42:01.834Z,102080.56
2019-05-30T03:44:32.154Z,102086.20
2019-05-30T03:47:06.296Z,102084.04
2019-05-30T03:49:41.865Z,102086.22
2019-05-30T03:52:17.251Z,102076.93
2019-05-30T03:54:48.292Z,102085.67
2019-05-30T03:57:24.079Z,102084.36
2019-05-30T04:00:00.712Z,102090.00
2019-05-30T04:02:56.017Z,102086.03
2019-05-30T04:05:27.007Z,102092.25
2019-05-30T04:08:00.239Z,102084.08
2019-05-30T04:10:35.734Z,102085.78
2019-05-30T04:13:14.139Z,102083.07
2019-05-30T04:15:44.136Z,102088.91
2019-05-30T04:18:16.447Z,102094.14
2019-05-30T04:20:48.175Z,102095.34
2019-05-30T04:23:19.702Z,102101.90
2019-05-30T04:25:50.329Z,102098.55
2019-05-30T04:28:21.095Z,102099.40
2019-05-30T04:30:51.582Z,102098.86
2019-05-30T04:33:32.726Z,102095.78
2019-05-30T04:35:54.829Z,102100.24
2019-05-30T04:38:26.439Z,102102.31
2019-05-30T04:40:57.454Z,102101.90
2019-05-30T04:43:30.096Z,102099.13
2019-05-30T04:46:00.780Z,102106.03
2019-05-30T04:48:31.141Z,102106.06
2019-05-30T04:51:02.668Z,102105.13
2019-05-30T04:53:34.155Z,102110.69
2019-05-30T04:56:04.472Z,102116.50
2019-05-30T04:58:35.179Z,102114.83
2019-05-30T05:01:05.442Z,102118.73
2019-05-30T05:03:45.876Z,102121.80
2019-05-30T05:06:07.913Z,102128.36
2019-05-30T05:08:38.403Z,102130.61
2019-05-30T05:11:12.499Z,102127.94
2019-05-30T05:13:41.062Z,102131.12
2019-05-30T05:16:24.374Z,102138.08
2019-05-30T05:18:45.984Z,102135.24
2019-05-30T05:21:17.517Z,102130.33
2019-05-30T05:23:47.868Z,102129.02
2019-05-30T05:26:19.517Z,102129.60
2019-05-30T05:28:50.303Z,102125.69
2019-05-30T05:31:20.670Z,102138.11
2019-05-30T05:33:56.514Z,102134.65
2019-05-30T05:36:23.701Z,102132.68
2019-05-30T05:38:54.702Z,102136.66
2019-05-30T05:41:25.302Z,102140.30
2019-05-30T05:43:56.580Z,102133.25
2019-05-30T05:46:27.085Z,102138.42
2019-05-30T05:48:58.249Z,102137.59
2019-05-30T05:51:29.032Z,102140.41
2019-05-30T05:54:00.232Z,102137.05
2019-05-30T05:56:30.693Z,102142.80
2019-05-30T05:59:01.289Z,102134.63
2019-05-30T06:01:31.631Z,102142.45
2019-05-30T06:04:12.507Z,102146.80
2019-05-30T06:06:35.122Z,102151.67
2019-05-30T06:09:08.331Z,102147.83
2019-05-30T06:11:38.608Z,102144.00
2019-05-30T06:14:09.288Z,102153.70
2019-05-30T06:16:39.642Z,102154.17
2019-05-30T06:19:10.344Z,102145.05
2019-05-30T06:21:53.458Z,102147.36
2019-05-30T06:24:13.783Z,102145.26
2019-05-30T06:26:44.053Z,102147.55
2019-05-30T06:29:14.889Z,102149.45
2019-05-30T06:31:45.205Z,102151.80
2019-05-30T06:34:29.276Z,102157.08
2019-05-30T06:36:49.187Z,102165.37
2019-05-30T06:39:19.756Z,102169.83
2019-05-30T06:41:50.388Z,102168.91
2019-05-30T06:44:21.854Z,102171.41
2019-05-30T06:46:52.211Z,102174.50
2019-05-30T06:49:22.911Z,102164.42
2019-05-30T06:51:54.037Z,102169.78
2019-05-30T06:54:25.884Z,102174.23
2019-05-30T06:56:57.558Z,102168.55
2019-05-30T06:59:27.958Z,102172.56
2019-05-30T07:01:58.592Z,102173.05
2019-05-30T07:04:40.362Z,102175.70
2019-05-30T07:07:01.765Z,102173.63
2019-05-30T07:09:33.022Z,102171.94
2019-05-30T07:12:04.058Z,102172.47
2019-05-30T07:14:34.389Z,102170.79
2019-05-30T07:17:06.557Z,102168.28
2019-05-30T07:19:37.919Z,102159.05
2019-05-30T07:22:09.306Z,102171.36
2019-05-30T07:24:39.765Z,102174.02
2019-05-30T07:27:10.633Z,102175.31
2019-05-30T07:29:42.380Z,102181.06
2019-05-30T07:32:13.575Z,102177.12
2019-05-30T07:34:47.048Z,102179.73
2019-05-30T07:37:17.290Z,102170.95
2019-05-30T07:39:47.684Z,102168.70
2019-05-30T07:42:18.025Z,102161.18
2019-05-30T07:44:51.351Z,102169.13
2019-05-30T07:47:21.592Z,102165.53
2019-05-30T07:49:51.874Z,102163.30
2019-05-30T07:52:22.187Z,102168.60
2019-05-30T07:54:52.569Z,102168.17
2019-05-30T07:57:23.721Z,102160.70
2019-05-30T07:59:54.377Z,102165.07
2019-05-30T08:02:25.193Z,102165.08
2019-05-30T08:04:56.837Z,102161.16
2019-05-30T08:07:28.478Z,102168.25
2019-05-30T08:10:00.142Z,102165.63
2019-05-30T08:12:32.058Z,102169.16
2019-05-30T08:15:03.249Z,102170.03
2019-05-30T08:17:33.748Z,102171.29
2019-05-30T08:20:07.403Z,102180.47
2019-05-30T08:22:38.937Z,102183.54
2019-05-30T08:25:10.438Z,102184.88
2019-05-30T08:27:41.199Z,102178.32
2019-05-30T08:30:14.505Z,102186.33
2019-05-30T08:32:44.823Z,102185.02
2019-05-30T08:35:16.070Z,102187.17
2019-05-30T08:37:46.381Z,102190.66
2019-05-30T08:40:20.012Z,102193.29
2019-05-30T08:42:50.580Z,102195.41
2019-05-30T08:45:22.812Z,102194.91
2019-05-30T08:47:53.628Z,102189.17
2019-05-30T08:50:24.782Z,102194.89
2019-05-30T08:52:55.023Z,102195.76
2019-05-30T08:55:25.611Z,102196.63
2019-05-30T08:57:56.519Z,102193.94
2019-05-30T09:00:28.403Z,102189.62
2019-05-30T09:02:58.709Z,102190.14
2019-05-30T09:05:30.552Z,102192.84
2019-05-30T09:08:00.893Z,102191.17
2019-05-30T09:10:31.251Z,102193.84
2019-05-30T09:13:02.761Z,102195.62
2019-05-30T09:15:34.887Z,102195.13
2019-05-30T09:18:05.472Z,102196.85
2019-05-30T09:20:39.784Z,102203.81
2019-05-30T09:23:10.547Z,102208.22
2019-05-30T09:25:41.603Z,102205.10
2019-05-30T09:28:12.094Z,102209.56
2019-05-30T09:30:43.192Z,102214.91
2019-05-30T09:33:14.175Z,102215.39
2019-05-30T09:35:44.988Z,102210.52
2019-05-30T09:38:16.334Z,102216.70
2019-05-30T09:40:49.631Z,102219.30
2019-05-30T09:43:20.140Z,102224.95
2019-05-30T09:45:50.498Z,102231.51
2019-05-30T09:48:21.199Z,102231.39
2019-05-30T09:50:52.008Z,102229.41
2019-05-30T09:53:22.650Z,102229.33
2019-05-30T09:55:53.938Z,102223.01
2019-05-30T09:58:24.264Z,102221.95
2019-05-30T10:00:56.744Z,102219.22
2019-05-30T10:03:28.696Z,102218.76
2019-05-30T10:05:59.325Z,102227.53
2019-05-30T10:08:30.158Z,102234.52
2019-05-30T10:11:03.840Z,102236.32
2019-05-30T10:13:34.163Z,102236.87
2019-05-30T10:16:05.073Z,102239.19
2019-05-30T10:18:35.824Z,102244.29
2019-05-30T10:21:06.413Z,102247.95
2019-05-30T10:23:38.706Z,102249.38
2019-05-30T10:26:09.089Z,102250.44
2019-05-30T10:28:39.348Z,102249.19
2019-05-30T10:31:12.587Z,102261.16
2019-05-30T10:33:42.832Z,102255.91
2019-05-30T10:36:14.770Z,102258.55
2019-05-30T10:38:45.436Z,102248.77
2019-05-30T10:41:18.136Z,102256.59
2019-05-30T10:43:49.116Z,102252.39
2019-05-30T10:46:19.802Z,102247.75
2019-05-30T10:48:50.968Z,102248.36
2019-05-30T10:51:22.032Z,102252.82
2019-05-30T10:53:53.921Z,102247.15
2019-05-30T10:56:24.852Z,102245.73
2019-05-30T10:58:55.173Z,102250.95
2019-05-30T11:01:26.986Z,102241.16
2019-05-30T11:03:57.297Z,102249.55
2019-05-30T11:07:07.594Z,102248.22
2019-05-30T11:09:30.325Z,102250.81
2019-05-30T11:12:02.306Z,102247.14
2019-05-30T11:14:32.753Z,102247.70
2019-05-30T11:17:03.271Z,102243.85
2019-05-30T11:19:33.680Z,102244.20
2019-05-30T11:22:04.671Z,102247.80
2019-05-30T11:24:35.447Z,102254.06
2019-05-30T11:27:06.381Z,102251.43
2019-05-30T11:29:36.702Z,102255.16
2019-05-30T11:32:08.260Z,102265.43
2019-05-30T11:34:38.573Z,102267.36
2019-05-30T11:39:41.895Z,102264.64
2019-05-30T11:42:12.820Z,102258.27
2019-05-30T11:44:43.068Z,102256.67
2019-05-30T11:47:14.960Z,102264.11
2019-05-30T11:49:45.270Z,102266.60
2019-05-30T11:52:15.997Z,102263.44
2019-05-30T11:54:46.689Z,102264.92
2019-05-30T11:57:17.343Z,102265.97
2019-05-30T11:59:47.705Z,102260.15
2019-05-30T12:02:18.988Z,102266.28
2019-05-30T12:04:50.428Z,102264.07
2019-05-30T12:07:35.784Z,102258.99
2019-05-30T12:09:55.303Z,102263.48
2019-05-30T12:12:26.114Z,102262.15
2019-05-30T12:14:57.352Z,102262.22
2019-05-30T12:17:30.653Z,102258.13
2019-05-30T12:20:01.884Z,102265.79
2019-05-30T12:22:33.448Z,102266.58
2019-05-30T12:25:05.697Z,102269.52
2019-05-30T12:27:36.957Z,102273.77
2019-05-30T12:30:11.434Z,102272.45
2019-05-30T12:32:43.030Z,102270.07
2019-05-30T12:35:14.470Z,102273.10
2019-05-30T12:37:54.679Z,102273.77
2019-05-30T12:40:21.307Z,102273.21
2019-05-30T12:42:54.501Z,102275.95
2019-05-30T12:45:24.076Z,102277.77
2019-05-30T12:47:55.113Z,102272.47
2019-05-30T12:50:27.022Z,102272.94
2019-05-30T12:53:01.991Z,102268.40
2019-05-30T12:55:32.691Z,102266.22
2019-05-30T12:58:03.875Z,102266.22
2019-05-30T13:00:37.183Z,102267.41
2019-05-30T13:03:07.793Z,102261.99
2019-05-30T13:05:38.102Z,102260.52
2019-05-30T13:08:20.444Z,102265.25
2019-05-30T13:10:41.232Z,102254.44
2019-05-30T13:13:12.441Z,102252.01
2019-05-30T13:15:42.771Z,102252.84
2019-05-30T13:18:13.036Z,102251.91
2019-05-30T13:20:43.326Z,102245.80
2019-05-30T13:23:15.101Z,102252.34
2019-05-30T13:25:45.849Z,102248.86
2019-05-30T13:28:16.752Z,102243.97
2019-05-30T13:30:48.256Z,102247.13
2019-05-30T13:33:19.736Z,102243.55
2019-05-30T13:35:50.076Z,102248.39
2019-05-30T13:38:26.830Z,102255.08
2019-05-30T13:40:57.381Z,102252.68
2019-05-30T13:43:28.215Z,102247.67
2019-05-30T13:45:58.639Z,102249.22
2019-05-30T13:48:29.332Z,102243.73
2019-05-30T13:51:01.234Z,102245.40
2019-05-30T13:53:31.760Z,102243.45
2019-05-30T13:56:03.218Z,102241.59
2019-05-30T13:58:34.552Z,102250.09
2019-05-30T14:01:10.495Z,102245.41
2019-05-30T14:03:38.831Z,102248.03
2019-05-30T14:06:11.149Z,102250.70
2019-05-30T14:08:42.238Z,102245.02
2019-05-30T14:11:13.607Z,102239.73
2019-05-30T14:13:45.363Z,102243.08
2019-05-30T14:16:15.585Z,102242.19
2019-05-30T14:18:46.201Z,102245.80
2019-05-30T14:21:16.576Z,102238.30
2019-05-30T14:23:47.553Z,102239.52
2019-05-30T14:26:19.170Z,102241.00
2019-05-30T14:28:50.005Z,102241.20
2019-05-30T14:31:20.724Z,102242.71
2019-05-30T14:33:51.551Z,102239.22
2019-05-30T14:36:21.854Z,102239.63
2019-05-30T14:38:58.550Z,102230.61
2019-05-30T14:41:24.682Z,102231.39
2019-05-30T14:43:56.338Z,102229.52
2019-05-30T14:46:26.583Z,102233.05
2019-05-30T14:48:57.400Z,102226.83
2019-05-30T14:51:27.817Z,102231.33
2019-05-30T14:53:59.266Z,102230.36
2019-05-30T14:56:29.509Z,102230.06
2019-05-30T14:58:59.774Z,102229.37
2019-05-30T15:01:30.064Z,102230.88
2019-05-30T15:04:00.728Z,102230.76
2019-05-30T15:06:31.034Z,102227.31
2019-05-30T15:09:15.274Z,102226.65
2019-05-30T15:11:33.672Z,102232.20
2019-05-30T15:14:08.748Z,102234.33
2019-05-30T15:16:39.158Z,102234.50
2019-05-30T15:19:10.314Z,102237.02
2019-05-30T15:21:40.727Z,102234.81
2019-05-30T15:24:12.876Z,102237.36
2019-05-30T15:26:45.060Z,102236.02
2019-05-30T15:29:16.299Z,102239.51
2019-05-30T15:31:47.181Z,102237.81
2019-05-30T15:34:19.075Z,102239.20
2019-05-30T15:36:49.787Z,102235.75
2019-05-30T15:39:32.484Z,102242.18
2019-05-30T15:41:53.323Z,102242.93
2019-05-30T15:44:24.832Z,102240.05
2019-05-30T15:46:55.093Z,102245.06
2019-05-30T15:49:26.538Z,102239.08
2019-05-30T15:51:56.876Z,102236.33
2019-05-30T15:54:28.892Z,102240.33
2019-05-30T15:57:00.441Z,102237.17
2019-05-30T15:59:31.114Z,102237.87
2019-05-30T16:02:01.394Z,102239.83
2019-05-30T16:04:32.494Z,102230.22
2019-05-30T16:07:03.168Z,102229.80
2019-05-30T16:09:46.282Z,102222.44
2019-05-30T16:12:06.451Z,102228.62
2019-05-30T16:14:37.659Z,102227.37
2019-05-30T16:17:09.762Z,102226.34
2019-05-30T16:19:40.909Z,102228.60
2019-05-30T16:22:12.260Z,102229.91
2019-05-30T16:24:43.855Z,102225.79
2019-05-30T16:27:14.143Z,102228.37
2019-05-30T16:29:45.012Z,102227.20
2019-05-30T16:32:15.894Z,102226.87
2019-05-30T16:34:47.220Z,102224.58
2019-05-30T16:37:18.152Z,102224.77
2019-05-30T16:40:04.666Z,102222.80
2019-05-30T16:42:20.517Z,102224.58
2019-05-30T16:44:52.075Z,102217.14
2019-05-30T16:47:22.695Z,102218.38
2019-05-30T16:49:52.975Z,102214.57
2019-05-30T16:52:24.391Z,102217.46
2019-05-30T16:54:56.849Z,102213.72
2019-05-30T16:57:27.153Z,102208.50
2019-05-30T16:59:57.598Z,102208.22
2019-05-30T17:02:27.905Z,102216.28
2019-05-30T17:04:59.763Z,102215.33
2019-05-30T17:07:30.181Z,102217.78
2019-05-30T17:10:02.243Z,102217.80
2019-05-30T17:12:32.844Z,102220.15
2019-05-30T17:15:04.973Z,102211.41
2019-05-30T17:17:35.213Z,102213.19
2019-05-30T17:20:07.873Z,102215.07
2019-05-30T17:22:38.275Z,102210.84
2019-05-30T17:25:11.571Z,102206.94
2019-05-30T17:27:42.860Z,102205.12
2019-05-30T17:30:19.522Z,102210.84
2019-05-30T17:32:50.705Z,102206.88
2019-05-30T17:35:22.078Z,102197.02
2019-05-30T17:37:52.498Z,102198.89
2019-05-30T17:40:40.208Z,102199.05
2019-05-30T17:42:55.832Z,102194.06
2019-05-30T17:45:27.563Z,102196.16
2019-05-30T17:48:13.440Z,102196.56
2019-05-30T17:50:33.029Z,102193.27
2019-05-30T17:53:03.449Z,102198.01
2019-05-30T17:55:37.312Z,102195.02
2019-05-30T17:58:10.406Z,102189.77
2019-05-30T18:00:39.463Z,102199.20
2019-05-30T18:03:09.854Z,102192.58
2019-05-30T18:05:41.204Z,102191.58
2019-05-30T18:08:13.322Z,102187.49
2019-05-30T18:10:53.242Z,102186.90
2019-05-30T18:13:15.754Z,102186.48
2019-05-30T18:15:47.986Z,102185.73
2019-05-30T18:18:21.180Z,102181.78
2019-05-30T18:20:52.666Z,102187.23
2019-05-30T18:23:23.507Z,102186.99
2019-05-30T18:25:54.576Z,102193.86
2019-05-30T18:28:25.808Z,102193.73
2019-05-30T18:30:56.083Z,102199.26
2019-05-30T18:33:26.531Z,102192.10
2019-05-30T18:35:58.209Z,102195.09
2019-05-30T18:38:28.520Z,102197.30
2019-05-30T18:41:11.091Z,102197.34
2019-05-30T18:43:31.399Z,102201.02
2019-05-30T18:46:02.849Z,102189.95
2019-05-30T18:48:33.493Z,102197.93
2019-05-30T18:51:04.114Z,102193.03
2019-05-30T18:53:34.359Z,102194.34
2019-05-30T18:56:07.522Z,102202.32
2019-05-30T18:58:40.764Z,102202.34
2019-05-30T19:01:11.408Z,102198.85
2019-05-30T19:03:42.770Z,102201.16
2019-05-30T19:06:14.650Z,102204.58
2019-05-30T19:08:44.968Z,102202.81
2019-05-30T19:11:27.254Z,102204.58
2019-05-30T19:13:49.635Z,102204.62
2019-05-30T19:16:20.888Z,102207.88
2019-05-30T19:18:52.053Z,102206.16
2019-05-30T19:21:23.414Z,102211.03
2019-05-30T19:23:54.139Z,102214.16
2019-05-30T19:26:24.603Z,102210.27
2019-05-30T19:28:57.874Z,102212.04
2019-05-30T19:31:28.795Z,102207.23
2019-05-30T19:34:00.087Z,102209.45
2019-05-30T19:36:31.092Z,102212.17
2019-05-30T19:39:01.541Z,102207.67
2019-05-30T19:41:46.024Z,102215.94
2019-05-30T19:44:07.068Z,102212.61
2019-05-30T19:46:38.429Z,102216.80
2019-05-30T19:49:09.247Z,102220.88
2019-05-30T19:51:41.049Z,102217.84
2019-05-30T19:54:11.290Z,102220.07
2019-05-30T19:56:43.640Z,102221.88
2019-05-30T19:59:14.360Z,102218.83
2019-05-30T20:01:46.531Z,102222.42
2019-05-30T20:04:17.215Z,102222.84
2019-05-30T20:06:49.437Z,102226.85
2019-05-30T20:09:19.682Z,102232.63
2019-05-30T20:12:02.822Z,102232.19
2019-05-30T20:14:23.422Z,102237.89
2019-05-30T20:16:53.890Z,102236.62
2019-05-30T20:19:25.525Z,102240.15
2019-05-30T20:21:58.821Z,102250.31
2019-05-30T20:24:29.585Z,102250.25
2019-05-30T20:27:00.099Z,102254.66
2019-05-30T20:29:32.844Z,102256.45
2019-05-30T20:32:03.872Z,102261.74
2019-05-30T20:34:34.851Z,102267.04
2019-05-30T20:37:07.235Z,102268.33
2019-05-30T20:39:38.625Z,102270.54
2019-05-30T20:42:19.198Z,102273.63
2019-05-30T20:44:43.590Z,102274.95
2019-05-30T20:47:14.762Z,102282.44
2019-05-30T20:49:45.009Z,102276.27
2019-05-30T20:52:19.811Z,102274.51
2019-05-30T20:54:50.059Z,102273.19
2019-05-30T20:57:20.877Z,102275.83
2019-05-30T20:59:51.518Z,102274.91
2019-05-30T21:02:22.648Z,102282.41
2019-05-30T21:04:53.031Z,102282.41
2019-05-30T21:07:24.514Z,102283.28
2019-05-30T21:09:55.822Z,102288.57
2019-05-30T21:12:37.763Z,102289.45
2019-05-30T21:15:03.210Z,102291.21
2019-05-30T21:17:35.798Z,102300.02
2019-05-30T21:20:11.301Z,102300.03
2019-05-30T21:22:42.229Z,102300.02
2019-05-30T21:25:14.037Z,102298.70
2019-05-30T21:27:45.239Z,102298.58
2019-05-30T21:30:17.303Z,102296.32
2019-05-30T21:32:48.853Z,102298.50
2019-05-30T21:35:20.245Z,102307.61
2019-05-30T21:37:50.619Z,102312.36
2019-05-30T21:40:20.860Z,102311.47
2019-05-30T21:43:05.053Z,102312.37
2019-05-30T21:45:24.097Z,102318.66
2019-05-30T21:47:55.005Z,102318.94
2019-05-30T21:50:25.657Z,102321.11
2019-05-30T21:52:56.032Z,102319.64
2019-05-30T21:55:26.343Z,102318.31
2019-05-30T21:57:59.697Z,102313.82
2019-05-30T22:00:50.892Z,102316.32
2019-05-30T22:03:21.889Z,102321.39
2019-05-30T22:05:52.788Z,102319.55
2019-05-30T22:08:25.768Z,102322.02
2019-05-30T22:10:56.018Z,102319.69
2019-05-30T22:13:27.171Z,102315.72
2019-05-30T22:15:57.549Z,102312.20
2019-05-30T22:18:29.103Z,102314.62
2019-05-30T22:20:59.413Z,102315.70
2019-05-30T22:23:29.704Z,102319.08
2019-05-30T22:26:00.016Z,102316.45
2019-05-30T22:28:30.943Z,102322.09
2019-05-30T22:31:01.240Z,102316.66
2019-05-30T22:33:31.729Z,102319.83
2019-05-30T22:36:02.122Z,102308.70
2019-05-30T22:38:33.290Z,102317.70
2019-05-30T22:41:03.598Z,102307.86
2019-05-30T22:43:33.944Z,102310.47
2019-05-30T22:46:04.337Z,102304.53
2019-05-30T22:48:34.680Z,102298.27
2019-05-30T22:51:05.702Z,102301.34
2019-05-30T22:53:36.111Z,102298.57
2019-05-30T22:56:07.328Z,102299.52
2019-05-30T22:58:37.689Z,102293.81
2019-05-30T23:01:08.041Z,102298.20
2019-05-30T23:03:38.303Z,102297.64
2019-05-30T23:06:08.656Z,102293.22
2019-05-30T23:08:39.606Z,102293.19
2019-05-30T23:11:10.024Z,102298.26
2019-05-30T23:13:40.923Z,102298.66
2019-05-30T23:16:13.019Z,102294.27
2019-05-30T23:18:43.342Z,102292.88
2019-05-30T23:21:14.441Z,102294.84
2019-05-30T23:23:46.849Z,102292.67
2019-05-30T23:26:17.848Z,102291.17
2019-05-30T23:28:50.032Z,102285.73
2019-05-30T23:31:22.361Z,102284.95
2019-05-30T23:33:52.687Z,102281.79
2019-05-30T23:36:24.000Z,102278.22
2019-05-30T23:38:54.920Z,102280.61
2019-05-30T23:41:25.985Z,102278.05
2019-05-30T23:44:08.872Z,102276.17
2019-05-30T23:46:31.081Z,102269.61
2019-05-30T23:49:01.332Z,102265.46
2019-05-30T23:51:32.457Z,102269.33
2019-05-30T23:54:03.619Z,102264.78
2019-05-30T23:56:34.319Z,102270.06
2019-05-30T23:59:04.587Z,102262.50
